Hai Yang Shi You 708 — BFDL — position and weather

sailwx.info

Track history (hours):
 
Tides and Currents Weather Stations Pressure Air Temp Water Temp Dewpoint Dewpoint Depression Visibility Wind Speed Wind Dir Waves Ship Positions

Hai Yang Shi You 708

Last reported at 2016-Jun-22 01:16 UTC. Time now 2016-Jun-29 11:06 UTC.
Position N 29°55' E 122°35'.

Length 105 m; draft 7.1 m.

Type: Other ship. MMSI: 413303010.

Date/timePositionNaut miles runAvg speedWind from/ knotsBaromVisibWave heightAir tempDewpointWater temp
2016-Jun-22 01:16N 29°55' E 122°35'810.5
2016-Jun-22 00:29N 29°47' E 122°32'9 9.8
2016-Jun-21 23:32N 29°38' E 122°30'10 9.7
2016-Jun-21 22:30N 29°28' E 122°28'308 6.4
2016-Jun-19 22:23N 24°58' E 119°41'2812.8
2016-Jun-19 20:14N 24°42' E 119°17'812.2
2016-Jun-19 19:34N 24°37' E 119°09'2711.4
2016-Jun-19 17:13N 24°21' E 118°46'1911.1
2016-Jun-19 15:33N 24°10' E 118°29'4511.2
2016-Jun-19 11:33N 23°44' E 117°50'6210.3
2016-Jun-19 05:32N 23°04' E 116°59'10 9.9
2016-Jun-19 04:33N 22°59' E 116°50'1110.4
2016-Jun-19 03:29N 22°54' E 116°39'346 7.3
2016-Jun-17 04:25N 21°03' E 110°45'910.6
2016-Jun-17 03:33N 21°04' E 110°36'5 5.0
2016-Jun-17 02:30N 21°05' E 110°30'0 0.1
2016-Jun-17 01:33N 21°05' E 110°30'0 0.0
2016-Jun-17 00:12N 21°05' E 110°30'0 0.0
2016-Jun-16 23:33N 21°05' E 110°30'0 0.0
2016-Jun-16 22:33N 21°05' E 110°30'0 0.0
2016-Jun-16 21:33N 21°05' E 110°30'0 0.1
2016-Jun-16 20:30N 21°05' E 110°30'0 0.0
2016-Jun-16 19:30N 21°05' E 110°30'0 0.0
2016-Jun-16 18:24N 21°05' E 110°30'0 0.0
2016-Jun-16 17:33N 21°05' E 110°30'0 0.0
2016-Jun-16 16:30N 21°05' E 110°30'0 0.0
2016-Jun-16 15:33N 21°05' E 110°30'0 0.0
2016-Jun-16 14:33N 21°05' E 110°30'0 0.0
2016-Jun-16 13:21N 21°05' E 110°30'0 0.0
2016-Jun-16 12:18N 21°05' E 110°30'0 0.0
2016-Jun-16 11:30N 21°05' E 110°30'0 0.0
2016-Jun-16 10:30N 21°05' E 110°30'0 0.0
2016-Jun-16 09:33N 21°05' E 110°30'0 0.1
2016-Jun-16 08:33N 21°05' E 110°30'0 0.0
2016-Jun-16 07:33N 21°05' E 110°30'0 0.1
2016-Jun-16 06:30N 21°05' E 110°30'0 0.0
2016-Jun-16 05:33N 21°05' E 110°30'0 0.1
2016-Jun-16 04:33N 21°05' E 110°30'0 0.0
2016-Jun-16 03:30N 21°05' E 110°30'0 0.0
2016-Jun-16 02:30N 21°05' E 110°30'0 0.1
2016-Jun-16 01:33N 21°05' E 110°30'0 0.0
2016-Jun-16 00:30N 21°05' E 110°30'0 0.0
2016-Jun-15 23:30N 21°05' E 110°30'0 0.0
2016-Jun-15 22:33N 21°05' E 110°30'0 0.0
2016-Jun-15 21:33N 21°05' E 110°30'0 0.0
2016-Jun-15 20:30N 21°05' E 110°30'0 0.1
2016-Jun-15 19:33N 21°05' E 110°30'0 0.0
2016-Jun-15 18:30N 21°05' E 110°30'0 0.0
2016-Jun-15 17:21N 21°05' E 110°30'0 0.1
2016-Jun-15 16:33N 21°05' E 110°30'0 0.0
2016-Jun-15 15:15N 21°05' E 110°30'0 0.0
2016-Jun-15 14:21N 21°05' E 110°30'0 0.0
2016-Jun-15 13:33N 21°05' E 110°30'0 0.0
2016-Jun-15 12:27N 21°05' E 110°30'0 0.1
2016-Jun-15 11:27N 21°05' E 110°30'0 0.0
2016-Jun-15 10:33N 21°05' E 110°30'0 0.0
2016-Jun-15 09:33N 21°05' E 110°30'0 0.1
2016-Jun-15 08:27N 21°05' E 110°30'0 0.0
2016-Jun-15 07:33N 21°05' E 110°30'0 0.0
2016-Jun-15 06:30N 21°05' E 110°30'0 0.0
2016-Jun-15 05:33N 21°05' E 110°30'0 0.0
2016-Jun-15 04:33N 21°05' E 110°30'0 0.0
2016-Jun-15 03:33N 21°05' E 110°30'0 0.0
2016-Jun-15 02:30N 21°05' E 110°30'0 0.0
2016-Jun-15 01:33N 21°05' E 110°30'0 0.1
2016-Jun-15 00:33N 21°05' E 110°30'0 0.0
2016-Jun-14 23:27N 21°05' E 110°30'0 0.0
2016-Jun-14 22:33N 21°05' E 110°30'0 0.0
2016-Jun-14 21:27N 21°05' E 110°30'0 0.0
2016-Jun-14 20:33N 21°05' E 110°30'0 0.1
2016-Jun-14 19:33N 21°05' E 110°30'0 0.0
2016-Jun-14 18:33N 21°05' E 110°30'0 0.0
2016-Jun-14 17:33N 21°05' E 110°30'0 0.0
2016-Jun-14 16:24N 21°05' E 110°30'0 0.0
2016-Jun-14 15:33N 21°05' E 110°30'0 0.0
2016-Jun-14 14:30N 21°05' E 110°30'0 0.0
2016-Jun-14 13:18N 21°05' E 110°30'0 0.0
2016-Jun-14 12:27N 21°05' E 110°30'0 0.0
2016-Jun-14 11:33N 21°05' E 110°30'0 0.0
2016-Jun-14 10:30N 21°05' E 110°30'0 0.0
2016-Jun-14 09:27N 21°05' E 110°30'0 0.0
2016-Jun-14 08:33N 21°05' E 110°30'0 0.0
2016-Jun-14 07:30N 21°05' E 110°30'0 0.0
2016-Jun-14 05:33N 21°05' E 110°30'0 0.0
2016-Jun-14 04:30N 21°05' E 110°30'0 0.0
2016-Jun-14 03:30N 21°05' E 110°30'0 0.0
2016-Jun-14 02:33N 21°05' E 110°30'0 0.0
2016-Jun-14 01:33N 21°05' E 110°30'0 0.0
2016-Jun-14 00:33N 21°05' E 110°30'0 0.1
2016-Jun-13 23:30N 21°05' E 110°30'0 0.0
2016-Jun-13 22:33N 21°05' E 110°30'0 0.0
2016-Jun-13 21:33N 21°05' E 110°30'0 0.0
2016-Jun-13 20:33N 21°05' E 110°30'0 0.0
2016-Jun-13 19:30N 21°05' E 110°30'0 0.0
2016-Jun-13 18:09N 21°05' E 110°30'0 0.0
2016-Jun-13 17:33N 21°05' E 110°30'0 0.0
2016-Jun-13 16:24N 21°05' E 110°30'0 0.0
2016-Jun-13 15:33N 21°05' E 110°30'0 0.1
2016-Jun-13 14:33N 21°05' E 110°30'0 0.1
2016-Jun-13 13:30N 21°05' E 110°30'0 0.0
2016-Jun-13 12:30N 21°05' E 110°30'0 0.0
2016-Jun-13 11:30N 21°05' E 110°30'0 0.0
2016-Jun-13 10:21N 21°05' E 110°30'0 0.0
2016-Jun-13 09:30N 21°05' E 110°30'0 0.0
2016-Jun-13 08:33N 21°05' E 110°30'5 4.7
2016-Jun-13 07:33N 21°07' E 110°26'8 7.8
2016-Jun-13 06:34N 21°15' E 110°26'0 0.0
2016-Jun-13 05:31N 21°15' E 110°26'0 0.1
2016-Jun-13 04:28N 21°15' E 110°26'0 0.0
2016-Jun-13 03:31N 21°15' E 110°26'0 0.0
2016-Jun-13 02:31N 21°15' E 110°26'0 0.0
2016-Jun-13 01:31N 21°15' E 110°26'0 0.0
2016-Jun-13 00:28N 21°15' E 110°26'0 0.1
2016-Jun-12 23:31N 21°15' E 110°26'0 0.1
2016-Jun-12 22:31N 21°15' E 110°26'0 0.0
2016-Jun-12 21:28N 21°15' E 110°26'0 0.0
2016-Jun-12 20:28N 21°15' E 110°26'0 0.0
2016-Jun-12 19:31N 21°15' E 110°26'0 0.0
2016-Jun-12 18:31N 21°15' E 110°26'0 0.0
2016-Jun-12 17:31N 21°15' E 110°26'0 0.0
2016-Jun-12 16:25N 21°15' E 110°26'0 0.1
2016-Jun-12 15:19N 21°15' E 110°26'0 0.0
2016-Jun-12 14:31N 21°15' E 110°26'0 0.0
2016-Jun-12 13:31N 21°15' E 110°26'0 0.1
2016-Jun-12 12:31N 21°15' E 110°26'0 0.1
2016-Jun-12 11:31N 21°15' E 110°26'0 0.0
2016-Jun-12 10:31N 21°15' E 110°26'0 0.0
2016-Jun-12 09:31N 21°15' E 110°26'0 0.0
2016-Jun-12 08:31N 21°15' E 110°26'0 0.1
2016-Jun-12 07:25N 21°15' E 110°26'0 0.0
2016-Jun-12 06:31N 21°15' E 110°26'0 0.0
2016-Jun-12 04:31N 21°15' E 110°26'0 0.0
2016-Jun-12 03:31N 21°15' E 110°26'0 0.0
2016-Jun-12 02:25N 21°15' E 110°26'0 0.0
2016-Jun-12 01:25N 21°15' E 110°26'  
Track history (hours):
 
Tides and Currents Weather Stations Pressure Air Temp Water Temp Dewpoint Dewpoint Depression Visibility Wind Speed Wind Dir Waves Ship Positions

Hai Yang Shi You 708

Last reported at 2016-Jun-22 01:16 UTC. Time now 2016-Jun-29 11:06 UTC.
Position N 29°55' E 122°35'.

Length 105 m; draft 7.1 m.

Type: Other ship. MMSI: 413303010.

Date/timePositionNaut miles runAvg speedWind from/ knotsBaromVisibWave heightAir tempDewpointWater temp
2016-Jun-22 01:16N 29°55' E 122°35'810.5
2016-Jun-22 00:29N 29°47' E 122°32'9 9.8
2016-Jun-21 23:32N 29°38' E 122°30'10 9.7
2016-Jun-21 22:30N 29°28' E 122°28'308 6.4
2016-Jun-19 22:23N 24°58' E 119°41'2812.8
2016-Jun-19 20:14N 24°42' E 119°17'812.2
2016-Jun-19 19:34N 24°37' E 119°09'2711.4
2016-Jun-19 17:13N 24°21' E 118°46'1911.1
2016-Jun-19 15:33N 24°10' E 118°29'4511.2
2016-Jun-19 11:33N 23°44' E 117°50'6210.3
2016-Jun-19 05:32N 23°04' E 116°59'10 9.9
2016-Jun-19 04:33N 22°59' E 116°50'1110.4
2016-Jun-19 03:29N 22°54' E 116°39'346 7.3
2016-Jun-17 04:25N 21°03' E 110°45'910.6
2016-Jun-17 03:33N 21°04' E 110°36'5 5.0
2016-Jun-17 02:30N 21°05' E 110°30'0 0.1
2016-Jun-17 01:33N 21°05' E 110°30'0 0.0
2016-Jun-17 00:12N 21°05' E 110°30'0 0.0
2016-Jun-16 23:33N 21°05' E 110°30'0 0.0
2016-Jun-16 22:33N 21°05' E 110°30'0 0.0
2016-Jun-16 21:33N 21°05' E 110°30'0 0.1
2016-Jun-16 20:30N 21°05' E 110°30'0 0.0
2016-Jun-16 19:30N 21°05' E 110°30'0 0.0
2016-Jun-16 18:24N 21°05' E 110°30'0 0.0
2016-Jun-16 17:33N 21°05' E 110°30'0 0.0
2016-Jun-16 16:30N 21°05' E 110°30'0 0.0
2016-Jun-16 15:33N 21°05' E 110°30'0 0.0
2016-Jun-16 14:33N 21°05' E 110°30'0 0.0
2016-Jun-16 13:21N 21°05' E 110°30'0 0.0
2016-Jun-16 12:18N 21°05' E 110°30'0 0.0
2016-Jun-16 11:30N 21°05' E 110°30'0 0.0
2016-Jun-16 10:30N 21°05' E 110°30'0 0.0
2016-Jun-16 09:33N 21°05' E 110°30'0 0.1
2016-Jun-16 08:33N 21°05' E 110°30'0 0.0
2016-Jun-16 07:33N 21°05' E 110°30'0 0.1
2016-Jun-16 06:30N 21°05' E 110°30'0 0.0
2016-Jun-16 05:33N 21°05' E 110°30'0 0.1
2016-Jun-16 04:33N 21°05' E 110°30'0 0.0
2016-Jun-16 03:30N 21°05' E 110°30'0 0.0
2016-Jun-16 02:30N 21°05' E 110°30'0 0.1
2016-Jun-16 01:33N 21°05' E 110°30'0 0.0
2016-Jun-16 00:30N 21°05' E 110°30'0 0.0
2016-Jun-15 23:30N 21°05' E 110°30'0 0.0
2016-Jun-15 22:33N 21°05' E 110°30'0 0.0
2016-Jun-15 21:33N 21°05' E 110°30'0 0.0
2016-Jun-15 20:30N 21°05' E 110°30'0 0.1
2016-Jun-15 19:33N 21°05' E 110°30'0 0.0
2016-Jun-15 18:30N 21°05' E 110°30'0 0.0
2016-Jun-15 17:21N 21°05' E 110°30'0 0.1
2016-Jun-15 16:33N 21°05' E 110°30'0 0.0
2016-Jun-15 15:15N 21°05' E 110°30'0 0.0
2016-Jun-15 14:21N 21°05' E 110°30'0 0.0
2016-Jun-15 13:33N 21°05' E 110°30'0 0.0
2016-Jun-15 12:27N 21°05' E 110°30'0 0.1
2016-Jun-15 11:27N 21°05' E 110°30'0 0.0
2016-Jun-15 10:33N 21°05' E 110°30'0 0.0
2016-Jun-15 09:33N 21°05' E 110°30'0 0.1
2016-Jun-15 08:27N 21°05' E 110°30'0 0.0
2016-Jun-15 07:33N 21°05' E 110°30'0 0.0
2016-Jun-15 06:30N 21°05' E 110°30'0 0.0
2016-Jun-15 05:33N 21°05' E 110°30'0 0.0
2016-Jun-15 04:33N 21°05' E 110°30'0 0.0
2016-Jun-15 03:33N 21°05' E 110°30'0 0.0
2016-Jun-15 02:30N 21°05' E 110°30'0 0.0
2016-Jun-15 01:33N 21°05' E 110°30'0 0.1
2016-Jun-15 00:33N 21°05' E 110°30'0 0.0
2016-Jun-14 23:27N 21°05' E 110°30'0 0.0
2016-Jun-14 22:33N 21°05' E 110°30'0 0.0
2016-Jun-14 21:27N 21°05' E 110°30'0 0.0
2016-Jun-14 20:33N 21°05' E 110°30'0 0.1
2016-Jun-14 19:33N 21°05' E 110°30'0 0.0
2016-Jun-14 18:33N 21°05' E 110°30'0 0.0
2016-Jun-14 17:33N 21°05' E 110°30'0 0.0
2016-Jun-14 16:24N 21°05' E 110°30'0 0.0
2016-Jun-14 15:33N 21°05' E 110°30'0 0.0
2016-Jun-14 14:30N 21°05' E 110°30'0 0.0
2016-Jun-14 13:18N 21°05' E 110°30'0 0.0
2016-Jun-14 12:27N 21°05' E 110°30'0 0.0
2016-Jun-14 11:33N 21°05' E 110°30'0 0.0
2016-Jun-14 10:30N 21°05' E 110°30'0 0.0
2016-Jun-14 09:27N 21°05' E 110°30'0 0.0
2016-Jun-14 08:33N 21°05' E 110°30'0 0.0
2016-Jun-14 07:30N 21°05' E 110°30'0 0.0
2016-Jun-14 05:33N 21°05' E 110°30'0 0.0
2016-Jun-14 04:30N 21°05' E 110°30'0 0.0
2016-Jun-14 03:30N 21°05' E 110°30'0 0.0
2016-Jun-14 02:33N 21°05' E 110°30'0 0.0
2016-Jun-14 01:33N 21°05' E 110°30'0 0.0
2016-Jun-14 00:33N 21°05' E 110°30'0 0.1
2016-Jun-13 23:30N 21°05' E 110°30'0 0.0
2016-Jun-13 22:33N 21°05' E 110°30'0 0.0
2016-Jun-13 21:33N 21°05' E 110°30'0 0.0
2016-Jun-13 20:33N 21°05' E 110°30'0 0.0
2016-Jun-13 19:30N 21°05' E 110°30'0 0.0
2016-Jun-13 18:09N 21°05' E 110°30'0 0.0
2016-Jun-13 17:33N 21°05' E 110°30'0 0.0
2016-Jun-13 16:24N 21°05' E 110°30'0 0.0
2016-Jun-13 15:33N 21°05' E 110°30'0 0.1
2016-Jun-13 14:33N 21°05' E 110°30'0 0.1
2016-Jun-13 13:30N 21°05' E 110°30'0 0.0
2016-Jun-13 12:30N 21°05' E 110°30'0 0.0
2016-Jun-13 11:30N 21°05' E 110°30'0 0.0
2016-Jun-13 10:21N 21°05' E 110°30'0 0.0
2016-Jun-13 09:30N 21°05' E 110°30'0 0.0
2016-Jun-13 08:33N 21°05' E 110°30'5 4.7
2016-Jun-13 07:33N 21°07' E 110°26'8 7.8
2016-Jun-13 06:34N 21°15' E 110°26'0 0.0
2016-Jun-13 05:31N 21°15' E 110°26'0 0.1
2016-Jun-13 04:28N 21°15' E 110°26'0 0.0
2016-Jun-13 03:31N 21°15' E 110°26'0 0.0
2016-Jun-13 02:31N 21°15' E 110°26'0 0.0
2016-Jun-13 01:31N 21°15' E 110°26'0 0.0
2016-Jun-13 00:28N 21°15' E 110°26'0 0.1
2016-Jun-12 23:31N 21°15' E 110°26'0 0.1
2016-Jun-12 22:31N 21°15' E 110°26'0 0.0
2016-Jun-12 21:28N 21°15' E 110°26'0 0.0
2016-Jun-12 20:28N 21°15' E 110°26'0 0.0
2016-Jun-12 19:31N 21°15' E 110°26'0 0.0
2016-Jun-12 18:31N 21°15' E 110°26'0 0.0
2016-Jun-12 17:31N 21°15' E 110°26'0 0.0
2016-Jun-12 16:25N 21°15' E 110°26'0 0.1
2016-Jun-12 15:19N 21°15' E 110°26'0 0.0
2016-Jun-12 14:31N 21°15' E 110°26'0 0.0
2016-Jun-12 13:31N 21°15' E 110°26'0 0.1
2016-Jun-12 12:31N 21°15' E 110°26'0 0.1
2016-Jun-12 11:31N 21°15' E 110°26'0 0.0
2016-Jun-12 10:31N 21°15' E 110°26'0 0.0
2016-Jun-12 09:31N 21°15' E 110°26'0 0.0
2016-Jun-12 08:31N 21°15' E 110°26'0 0.1
2016-Jun-12 07:25N 21°15' E 110°26'0 0.0
2016-Jun-12 06:31N 21°15' E 110°26'0 0.0
2016-Jun-12 04:31N 21°15' E 110°26'0 0.0
2016-Jun-12 03:31N 21°15' E 110°26'0 0.0
2016-Jun-12 02:25N 21°15' E 110°26'0 0.0
2016-Jun-12 01:25N 21°15' E 110°26'  

Dump ship's entire track history